sensor_id;sensor_type;location;lat;lon;timestamp;P1;durP1;ratioP1;P2;durP2;ratioP2
24173;SDS011;12324;48.146;11.502;2023-02-04T00:01:25;5.18;;;3.00;;
24173;SDS011;12324;48.146;11.502;2023-02-04T00:03:52;6.30;;;3.28;;
24173;SDS011;12324;48.146;11.502;2023-02-04T00:06:19;4.07;;;2.83;;
24173;SDS011;12324;48.146;11.502;2023-02-04T00:08:46;4.72;;;3.10;;
24173;SDS011;12324;48.146;11.502;2023-02-04T00:11:13;7.35;;;3.20;;
24173;SDS011;12324;48.146;11.502;2023-02-04T00:13:40;6.35;;;3.40;;
24173;SDS011;12324;48.146;11.502;2023-02-04T00:16:07;5.07;;;3.00;;
24173;SDS011;12324;48.146;11.502;2023-02-04T00:18:34;7.53;;;3.22;;
24173;SDS011;12324;48.146;11.502;2023-02-04T00:21:01;6.32;;;3.38;;
24173;SDS011;12324;48.146;11.502;2023-02-04T00:23:28;5.72;;;3.15;;
24173;SDS011;12324;48.146;11.502;2023-02-04T00:25:55;7.68;;;3.58;;
24173;SDS011;12324;48.146;11.502;2023-02-04T00:28:22;5.82;;;3.20;;
24173;SDS011;12324;48.146;11.502;2023-02-04T00:30:49;5.47;;;3.47;;
24173;SDS011;12324;48.146;11.502;2023-02-04T00:33:16;6.68;;;3.65;;
24173;SDS011;12324;48.146;11.502;2023-02-04T00:35:44;6.35;;;3.63;;
24173;SDS011;12324;48.146;11.502;2023-02-04T00:38:11;8.10;;;4.00;;
24173;SDS011;12324;48.146;11.502;2023-02-04T00:40:38;4.95;;;2.95;;
24173;SDS011;12324;48.146;11.502;2023-02-04T00:43:05;6.18;;;3.63;;
24173;SDS011;12324;48.146;11.502;2023-02-04T00:45:32;6.00;;;3.47;;
24173;SDS011;12324;48.146;11.502;2023-02-04T00:47:59;6.40;;;3.65;;
24173;SDS011;12324;48.146;11.502;2023-02-04T00:50:26;6.00;;;2.90;;
24173;SDS011;12324;48.146;11.502;2023-02-04T00:52:54;5.97;;;3.30;;
24173;SDS011;12324;48.146;11.502;2023-02-04T00:55:21;6.40;;;3.47;;
24173;SDS011;12324;48.146;11.502;2023-02-04T00:57:48;7.32;;;3.35;;
24173;SDS011;12324;48.146;11.502;2023-02-04T01:00:16;6.40;;;3.35;;
24173;SDS011;12324;48.146;11.502;2023-02-04T01:02:43;5.65;;;3.25;;
24173;SDS011;12324;48.146;11.502;2023-02-04T01:05:11;5.68;;;3.25;;
24173;SDS011;12324;48.146;11.502;2023-02-04T01:07:38;3.83;;;2.75;;
24173;SDS011;12324;48.146;11.502;2023-02-04T01:10:05;7.60;;;2.80;;
24173;SDS011;12324;48.146;11.502;2023-02-04T01:12:32;4.50;;;2.85;;
24173;SDS011;12324;48.146;11.502;2023-02-04T01:14:59;6.10;;;3.10;;
24173;SDS011;12324;48.146;11.502;2023-02-04T01:17:26;4.95;;;2.85;;
24173;SDS011;12324;48.146;11.502;2023-02-04T01:19:53;5.80;;;3.00;;
24173;SDS011;12324;48.146;11.502;2023-02-04T01:22:20;4.65;;;2.92;;
24173;SDS011;12324;48.146;11.502;2023-02-04T01:24:47;4.38;;;2.70;;
24173;SDS011;12324;48.146;11.502;2023-02-04T01:27:15;4.72;;;2.72;;
24173;SDS011;12324;48.146;11.502;2023-02-04T01:29:42;7.00;;;2.80;;
24173;SDS011;12324;48.146;11.502;2023-02-04T01:32:09;5.35;;;2.60;;
24173;SDS011;12324;48.146;11.502;2023-02-04T01:34:36;8.18;;;2.90;;
24173;SDS011;12324;48.146;11.502;2023-02-04T01:37:03;6.65;;;2.67;;
24173;SDS011;12324;48.146;11.502;2023-02-04T01:39:31;3.33;;;2.20;;
24173;SDS011;12324;48.146;11.502;2023-02-04T01:41:59;3.38;;;2.17;;
24173;SDS011;12324;48.146;11.502;2023-02-04T01:44:26;6.60;;;2.55;;
24173;SDS011;12324;48.146;11.502;2023-02-04T01:46:54;6.25;;;2.47;;
24173;SDS011;12324;48.146;11.502;2023-02-04T01:49:22;9.93;;;2.60;;
24173;SDS011;12324;48.146;11.502;2023-02-04T01:51:49;3.10;;;1.90;;
24173;SDS011;12324;48.146;11.502;2023-02-04T01:54:16;5.10;;;2.22;;
24173;SDS011;12324;48.146;11.502;2023-02-04T01:56:44;4.00;;;2.05;;
24173;SDS011;12324;48.146;11.502;2023-02-04T01:59:13;6.50;;;2.50;;
24173;SDS011;12324;48.146;11.502;2023-02-04T02:01:45;4.53;;;2.20;;
24173;SDS011;12324;48.146;11.502;2023-02-04T02:04:13;6.78;;;2.53;;
24173;SDS011;12324;48.146;11.502;2023-02-04T02:07:02;8.32;;;3.10;;
24173;SDS011;12324;48.146;11.502;2023-02-04T02:09:28;4.20;;;2.45;;
24173;SDS011;12324;48.146;11.502;2023-02-04T02:11:56;8.13;;;2.90;;
24173;SDS011;12324;48.146;11.502;2023-02-04T02:14:24;10.95;;;3.20;;
24173;SDS011;12324;48.146;11.502;2023-02-04T02:16:51;11.30;;;3.20;;
24173;SDS011;12324;48.146;11.502;2023-02-04T02:19:24;9.60;;;3.40;;
24173;SDS011;12324;48.146;11.502;2023-02-04T02:22:04;8.82;;;3.47;;
24173;SDS011;12324;48.146;11.502;2023-02-04T02:24:33;16.65;;;4.20;;
24173;SDS011;12324;48.146;11.502;2023-02-04T02:27:07;12.75;;;3.95;;
24173;SDS011;12324;48.146;11.502;2023-02-04T02:29:35;16.08;;;4.47;;
24173;SDS011;12324;48.146;11.502;2023-02-04T02:32:03;13.13;;;4.22;;
24173;SDS011;12324;48.146;11.502;2023-02-04T02:34:30;11.65;;;4.53;;
24173;SDS011;12324;48.146;11.502;2023-02-04T02:36:57;15.45;;;4.63;;
24173;SDS011;12324;48.146;11.502;2023-02-04T02:39:25;10.55;;;4.20;;
24173;SDS011;12324;48.146;11.502;2023-02-04T02:41:53;11.00;;;3.90;;
24173;SDS011;12324;48.146;11.502;2023-02-04T02:44:20;17.15;;;5.60;;
24173;SDS011;12324;48.146;11.502;2023-02-04T02:46:47;17.00;;;4.50;;
24173;SDS011;12324;48.146;11.502;2023-02-04T02:49:16;15.30;;;4.85;;
24173;SDS011;12324;48.146;11.502;2023-02-04T02:51:44;14.45;;;4.63;;
24173;SDS011;12324;48.146;11.502;2023-02-04T02:54:19;19.17;;;5.78;;
24173;SDS011;12324;48.146;11.502;2023-02-04T02:56:47;16.77;;;5.20;;
24173;SDS011;12324;48.146;11.502;2023-02-04T02:59:14;19.23;;;4.95;;
24173;SDS011;12324;48.146;11.502;2023-02-04T03:01:42;18.40;;;5.85;;
24173;SDS011;12324;48.146;11.502;2023-02-04T03:04:09;17.77;;;5.70;;
24173;SDS011;12324;48.146;11.502;2023-02-04T03:06:37;17.67;;;4.55;;
24173;SDS011;12324;48.146;11.502;2023-02-04T03:09:04;18.55;;;5.22;;
24173;SDS011;12324;48.146;11.502;2023-02-04T03:11:31;22.83;;;5.05;;
24173;SDS011;12324;48.146;11.502;2023-02-04T03:13:58;20.75;;;5.53;;
24173;SDS011;12324;48.146;11.502;2023-02-04T03:16:27;18.05;;;4.60;;
24173;SDS011;12324;48.146;11.502;2023-02-04T03:18:54;22.00;;;5.13;;
24173;SDS011;12324;48.146;11.502;2023-02-04T03:21:21;23.17;;;5.82;;
24173;SDS011;12324;48.146;11.502;2023-02-04T03:23:48;18.52;;;4.95;;
24173;SDS011;12324;48.146;11.502;2023-02-04T03:26:16;25.55;;;6.38;;
24173;SDS011;12324;48.146;11.502;2023-02-04T03:28:43;18.13;;;4.90;;
24173;SDS011;12324;48.146;11.502;2023-02-04T03:31:10;20.88;;;4.63;;
24173;SDS011;12324;48.146;11.502;2023-02-04T03:33:37;25.00;;;6.05;;
24173;SDS011;12324;48.146;11.502;2023-02-04T03:36:04;25.65;;;5.85;;
24173;SDS011;12324;48.146;11.502;2023-02-04T03:38:32;24.55;;;6.45;;
24173;SDS011;12324;48.146;11.502;2023-02-04T03:40:59;21.80;;;6.28;;
24173;SDS011;12324;48.146;11.502;2023-02-04T03:43:26;21.80;;;5.65;;
24173;SDS011;12324;48.146;11.502;2023-02-04T03:45:53;20.67;;;6.45;;
24173;SDS011;12324;48.146;11.502;2023-02-04T03:48:21;17.67;;;5.35;;
24173;SDS011;12324;48.146;11.502;2023-02-04T03:50:48;17.52;;;5.53;;
24173;SDS011;12324;48.146;11.502;2023-02-04T03:53:15;21.55;;;5.45;;
24173;SDS011;12324;48.146;11.502;2023-02-04T03:55:42;17.75;;;4.93;;
24173;SDS011;12324;48.146;11.502;2023-02-04T03:58:09;17.20;;;5.05;;
24173;SDS011;12324;48.146;11.502;2023-02-04T04:00:36;20.48;;;5.00;;
24173;SDS011;12324;48.146;11.502;2023-02-04T04:03:03;16.88;;;4.60;;
24173;SDS011;12324;48.146;11.502;2023-02-04T04:05:30;19.80;;;5.30;;
24173;SDS011;12324;48.146;11.502;2023-02-04T04:07:57;21.67;;;5.55;;
24173;SDS011;12324;48.146;11.502;2023-02-04T04:10:24;26.15;;;5.85;;
24173;SDS011;12324;48.146;11.502;2023-02-04T04:12:51;23.95;;;5.35;;
24173;SDS011;12324;48.146;11.502;2023-02-04T04:15:19;21.27;;;5.03;;
24173;SDS011;12324;48.146;11.502;2023-02-04T04:17:46;16.02;;;4.55;;
24173;SDS011;12324;48.146;11.502;2023-02-04T04:20:13;19.58;;;4.72;;
24173;SDS011;12324;48.146;11.502;2023-02-04T04:22:41;17.30;;;4.63;;
24173;SDS011;12324;48.146;11.502;2023-02-04T04:25:08;17.42;;;5.20;;
24173;SDS011;12324;48.146;11.502;2023-02-04T04:27:35;15.55;;;4.45;;
24173;SDS011;12324;48.146;11.502;2023-02-04T04:30:02;22.83;;;4.85;;
24173;SDS011;12324;48.146;11.502;2023-02-04T04:32:29;17.38;;;5.28;;
24173;SDS011;12324;48.146;11.502;2023-02-04T04:34:56;24.80;;;5.18;;
24173;SDS011;12324;48.146;11.502;2023-02-04T04:37:23;16.65;;;4.40;;
24173;SDS011;12324;48.146;11.502;2023-02-04T04:39:51;26.80;;;4.57;;
24173;SDS011;12324;48.146;11.502;2023-02-04T04:42:18;22.83;;;5.32;;
24173;SDS011;12324;48.146;11.502;2023-02-04T04:44:45;24.75;;;5.72;;
24173;SDS011;12324;48.146;11.502;2023-02-04T04:47:12;22.98;;;5.78;;
24173;SDS011;12324;48.146;11.502;2023-02-04T04:49:39;20.80;;;5.20;;
24173;SDS011;12324;48.146;11.502;2023-02-04T04:52:06;17.45;;;4.95;;
24173;SDS011;12324;48.146;11.502;2023-02-04T04:54:33;22.90;;;4.47;;
24173;SDS011;12324;48.146;11.502;2023-02-04T04:57:00;22.63;;;5.45;;
24173;SDS011;12324;48.146;11.502;2023-02-04T04:59:27;23.67;;;4.65;;
24173;SDS011;12324;48.146;11.502;2023-02-04T05:01:54;27.25;;;5.65;;
24173;SDS011;12324;48.146;11.502;2023-02-04T05:04:21;21.55;;;4.85;;
24173;SDS011;12324;48.146;11.502;2023-02-04T05:06:48;21.05;;;4.55;;
24173;SDS011;12324;48.146;11.502;2023-02-04T05:09:15;17.83;;;5.30;;
24173;SDS011;12324;48.146;11.502;2023-02-04T05:11:42;21.35;;;4.43;;
24173;SDS011;12324;48.146;11.502;2023-02-04T05:14:09;22.85;;;5.03;;
24173;SDS011;12324;48.146;11.502;2023-02-04T05:16:36;14.43;;;4.57;;
24173;SDS011;12324;48.146;11.502;2023-02-04T05:19:04;21.42;;;5.30;;
24173;SDS011;12324;48.146;11.502;2023-02-04T05:21:31;18.05;;;4.93;;
24173;SDS011;12324;48.146;11.502;2023-02-04T05:23:58;16.35;;;3.88;;
24173;SDS011;12324;48.146;11.502;2023-02-04T05:26:25;16.67;;;4.25;;
24173;SDS011;12324;48.146;11.502;2023-02-04T05:28:56;13.88;;;3.95;;
24173;SDS011;12324;48.146;11.502;2023-02-04T05:31:25;14.70;;;4.25;;
24173;SDS011;12324;48.146;11.502;2023-02-04T05:33:52;20.92;;;4.32;;
24173;SDS011;12324;48.146;11.502;2023-02-04T05:36:19;19.75;;;4.10;;
24173;SDS011;12324;48.146;11.502;2023-02-04T05:38:46;12.63;;;3.80;;
24173;SDS011;12324;48.146;11.502;2023-02-04T05:41:13;23.40;;;5.03;;
24173;SDS011;12324;48.146;11.502;2023-02-04T05:43:40;16.70;;;4.28;;
24173;SDS011;12324;48.146;11.502;2023-02-04T05:46:08;19.65;;;4.60;;
24173;SDS011;12324;48.146;11.502;2023-02-04T05:48:35;15.95;;;4.13;;
24173;SDS011;12324;48.146;11.502;2023-02-04T05:51:02;18.30;;;4.32;;
24173;SDS011;12324;48.146;11.502;2023-02-04T05:53:29;18.10;;;4.00;;
24173;SDS011;12324;48.146;11.502;2023-02-04T05:55:56;20.85;;;4.15;;
24173;SDS011;12324;48.146;11.502;2023-02-04T05:58:23;19.45;;;4.82;;
24173;SDS011;12324;48.146;11.502;2023-02-04T06:00:50;17.83;;;4.53;;
24173;SDS011;12324;48.146;11.502;2023-02-04T06:03:17;19.63;;;4.10;;
24173;SDS011;12324;48.146;11.502;2023-02-04T06:05:46;15.25;;;4.47;;
24173;SDS011;12324;48.146;11.502;2023-02-04T06:08:13;26.15;;;5.55;;
24173;SDS011;12324;48.146;11.502;2023-02-04T06:10:40;18.88;;;5.25;;
24173;SDS011;12324;48.146;11.502;2023-02-04T06:13:08;22.02;;;4.88;;
24173;SDS011;12324;48.146;11.502;2023-02-04T06:15:35;13.88;;;4.80;;
24173;SDS011;12324;48.146;11.502;2023-02-04T06:18:02;25.15;;;5.15;;
24173;SDS011;12324;48.146;11.502;2023-02-04T06:20:29;22.40;;;5.15;;
24173;SDS011;12324;48.146;11.502;2023-02-04T06:22:56;16.58;;;5.40;;
24173;SDS011;12324;48.146;11.502;2023-02-04T06:25:23;21.17;;;5.40;;
24173;SDS011;12324;48.146;11.502;2023-02-04T06:27:50;20.45;;;5.53;;
24173;SDS011;12324;48.146;11.502;2023-02-04T06:30:18;17.25;;;4.65;;
24173;SDS011;12324;48.146;11.502;2023-02-04T06:32:45;20.98;;;5.65;;
24173;SDS011;12324;48.146;11.502;2023-02-04T06:35:12;22.50;;;5.65;;
24173;SDS011;12324;48.146;11.502;2023-02-04T06:37:42;19.77;;;5.07;;
24173;SDS011;12324;48.146;11.502;2023-02-04T06:40:09;19.52;;;5.30;;
24173;SDS011;12324;48.146;11.502;2023-02-04T06:42:37;18.30;;;5.95;;
24173;SDS011;12324;48.146;11.502;2023-02-04T06:45:04;18.05;;;5.10;;
24173;SDS011;12324;48.146;11.502;2023-02-04T06:47:31;18.73;;;5.03;;
24173;SDS011;12324;48.146;11.502;2023-02-04T06:49:58;20.98;;;5.10;;
24173;SDS011;12324;48.146;11.502;2023-02-04T06:52:25;20.75;;;6.05;;
24173;SDS011;12324;48.146;11.502;2023-02-04T06:54:52;20.50;;;4.93;;
24173;SDS011;12324;48.146;11.502;2023-02-04T06:57:19;17.33;;;4.72;;
24173;SDS011;12324;48.146;11.502;2023-02-04T06:59:46;20.48;;;5.18;;
24173;SDS011;12324;48.146;11.502;2023-02-04T07:02:13;20.85;;;4.72;;
24173;SDS011;12324;48.146;11.502;2023-02-04T07:04:40;12.95;;;4.45;;
24173;SDS011;12324;48.146;11.502;2023-02-04T07:07:09;23.17;;;5.82;;
24173;SDS011;12324;48.146;11.502;2023-02-04T07:09:36;16.70;;;5.30;;
24173;SDS011;12324;48.146;11.502;2023-02-04T07:12:05;15.48;;;4.40;;
24173;SDS011;12324;48.146;11.502;2023-02-04T07:14:32;16.40;;;4.50;;
24173;SDS011;12324;48.146;11.502;2023-02-04T07:17:00;15.10;;;4.65;;
24173;SDS011;12324;48.146;11.502;2023-02-04T07:19:27;17.58;;;4.85;;
24173;SDS011;12324;48.146;11.502;2023-02-04T07:21:54;18.60;;;4.07;;
24173;SDS011;12324;48.146;11.502;2023-02-04T07:24:22;13.75;;;4.28;;
24173;SDS011;12324;48.146;11.502;2023-02-04T07:26:49;15.80;;;4.35;;
24173;SDS011;12324;48.146;11.502;2023-02-04T07:29:16;16.02;;;3.92;;
24173;SDS011;12324;48.146;11.502;2023-02-04T07:31:50;14.07;;;4.72;;
24173;SDS011;12324;48.146;11.502;2023-02-04T07:34:18;17.73;;;4.15;;
24173;SDS011;12324;48.146;11.502;2023-02-04T07:36:46;15.10;;;4.22;;
24173;SDS011;12324;48.146;11.502;2023-02-04T07:39:13;12.63;;;3.45;;
24173;SDS011;12324;48.146;11.502;2023-02-04T07:41:40;15.10;;;4.00;;
24173;SDS011;12324;48.146;11.502;2023-02-04T07:44:07;16.33;;;4.18;;
24173;SDS011;12324;48.146;11.502;2023-02-04T07:46:34;17.77;;;4.47;;
24173;SDS011;12324;48.146;11.502;2023-02-04T07:49:01;15.23;;;4.28;;
24173;SDS011;12324;48.146;11.502;2023-02-04T07:51:28;13.75;;;4.13;;
24173;SDS011;12324;48.146;11.502;2023-02-04T07:53:55;15.23;;;4.10;;
24173;SDS011;12324;48.146;11.502;2023-02-04T07:56:23;16.60;;;3.97;;
24173;SDS011;12324;48.146;11.502;2023-02-04T07:58:50;13.82;;;4.30;;
24173;SDS011;12324;48.146;11.502;2023-02-04T08:01:17;17.35;;;3.70;;
24173;SDS011;12324;48.146;11.502;2023-02-04T08:03:44;14.73;;;4.28;;
24173;SDS011;12324;48.146;11.502;2023-02-04T08:06:11;20.65;;;4.03;;
24173;SDS011;12324;48.146;11.502;2023-02-04T08:08:38;19.33;;;5.28;;
24173;SDS011;12324;48.146;11.502;2023-02-04T08:11:05;18.77;;;4.45;;
24173;SDS011;12324;48.146;11.502;2023-02-04T08:13:32;17.40;;;4.63;;
24173;SDS011;12324;48.146;11.502;2023-02-04T08:15:59;14.80;;;4.43;;
24173;SDS011;12324;48.146;11.502;2023-02-04T08:18:26;19.85;;;4.00;;
24173;SDS011;12324;48.146;11.502;2023-02-04T08:20:54;15.65;;;4.47;;
24173;SDS011;12324;48.146;11.502;2023-02-04T08:23:21;18.77;;;3.90;;
24173;SDS011;12324;48.146;11.502;2023-02-04T08:25:48;14.00;;;3.95;;
24173;SDS011;12324;48.146;11.502;2023-02-04T08:28:15;19.38;;;4.53;;
24173;SDS011;12324;48.146;11.502;2023-02-04T08:30:43;29.23;;;4.65;;
24173;SDS011;12324;48.146;11.502;2023-02-04T08:33:10;11.60;;;4.10;;
24173;SDS011;12324;48.146;11.502;2023-02-04T08:35:37;15.93;;;4.43;;
24173;SDS011;12324;48.146;11.502;2023-02-04T08:38:04;19.25;;;5.00;;
24173;SDS011;12324;48.146;11.502;2023-02-04T08:40:31;21.88;;;5.10;;
24173;SDS011;12324;48.146;11.502;2023-02-04T08:42:59;11.57;;;3.17;;
24173;SDS011;12324;48.146;11.502;2023-02-04T08:45:26;14.18;;;4.00;;
24173;SDS011;12324;48.146;11.502;2023-02-04T08:47:53;13.82;;;4.28;;
24173;SDS011;12324;48.146;11.502;2023-02-04T08:50:20;14.55;;;3.30;;
24173;SDS011;12324;48.146;11.502;2023-02-04T08:52:47;17.67;;;3.30;;
24173;SDS011;12324;48.146;11.502;2023-02-04T08:55:14;16.25;;;3.58;;
24173;SDS011;12324;48.146;11.502;2023-02-04T08:57:41;20.65;;;4.60;;
24173;SDS011;12324;48.146;11.502;2023-02-04T09:00:09;16.42;;;4.20;;
24173;SDS011;12324;48.146;11.502;2023-02-04T09:02:36;19.52;;;4.25;;
24173;SDS011;12324;48.146;11.502;2023-02-04T09:05:04;20.92;;;4.25;;
24173;SDS011;12324;48.146;11.502;2023-02-04T09:07:31;14.15;;;4.00;;
24173;SDS011;12324;48.146;11.502;2023-02-04T09:09:58;13.30;;;4.22;;
24173;SDS011;12324;48.146;11.502;2023-02-04T09:12:25;17.52;;;3.72;;
24173;SDS011;12324;48.146;11.502;2023-02-04T09:14:52;18.77;;;4.30;;
24173;SDS011;12324;48.146;11.502;2023-02-04T09:17:19;16.05;;;3.63;;
24173;SDS011;12324;48.146;11.502;2023-02-04T09:19:46;18.27;;;3.88;;
24173;SDS011;12324;48.146;11.502;2023-02-04T09:22:13;23.35;;;3.78;;
24173;SDS011;12324;48.146;11.502;2023-02-04T09:24:40;16.15;;;3.63;;
24173;SDS011;12324;48.146;11.502;2023-02-04T09:27:07;17.65;;;3.90;;
24173;SDS011;12324;48.146;11.502;2023-02-04T09:29:34;26.30;;;4.35;;
24173;SDS011;12324;48.146;11.502;2023-02-04T09:32:01;17.83;;;3.70;;
24173;SDS011;12324;48.146;11.502;2023-02-04T09:34:28;15.25;;;3.72;;
24173;SDS011;12324;48.146;11.502;2023-02-04T09:36:55;18.02;;;5.13;;
24173;SDS011;12324;48.146;11.502;2023-02-04T09:39:22;18.88;;;4.15;;
24173;SDS011;12324;48.146;11.502;2023-02-04T09:41:49;14.35;;;3.70;;
24173;SDS011;12324;48.146;11.502;2023-02-04T09:44:19;17.58;;;4.38;;
24173;SDS011;12324;48.146;11.502;2023-02-04T09:46:48;13.40;;;3.30;;
24173;SDS011;12324;48.146;11.502;2023-02-04T09:49:16;14.48;;;3.40;;
24173;SDS011;12324;48.146;11.502;2023-02-04T09:51:43;12.30;;;3.40;;
24173;SDS011;12324;48.146;11.502;2023-02-04T09:54:15;16.98;;;4.47;;
24173;SDS011;12324;48.146;11.502;2023-02-04T09:56:43;17.35;;;4.18;;
24173;SDS011;12324;48.146;11.502;2023-02-04T09:59:28;19.15;;;4.05;;
24173;SDS011;12324;48.146;11.502;2023-02-04T10:01:59;16.80;;;4.90;;
24173;SDS011;12324;48.146;11.502;2023-02-04T10:04:27;17.15;;;3.67;;
24173;SDS011;12324;48.146;11.502;2023-02-04T10:06:54;18.23;;;4.22;;
24173;SDS011;12324;48.146;11.502;2023-02-04T10:09:23;16.52;;;3.90;;
24173;SDS011;12324;48.146;11.502;2023-02-04T10:11:50;18.45;;;3.13;;
24173;SDS011;12324;48.146;11.502;2023-02-04T10:14:18;13.40;;;3.85;;
24173;SDS011;12324;48.146;11.502;2023-02-04T10:16:48;14.30;;;3.63;;
24173;SDS011;12324;48.146;11.502;2023-02-04T10:19:18;18.52;;;3.53;;
24173;SDS011;12324;48.146;11.502;2023-02-04T10:21:45;19.90;;;3.97;;
24173;SDS011;12324;48.146;11.502;2023-02-04T10:24:14;14.90;;;3.53;;
24173;SDS011;12324;48.146;11.502;2023-02-04T10:26:41;19.15;;;4.55;;
24173;SDS011;12324;48.146;11.502;2023-02-04T10:29:14;16.48;;;3.55;;
24173;SDS011;12324;48.146;11.502;2023-02-04T10:31:42;17.83;;;4.63;;
24173;SDS011;12324;48.146;11.502;2023-02-04T10:34:11;16.95;;;4.57;;
24173;SDS011;12324;48.146;11.502;2023-02-04T10:36:39;16.75;;;4.25;;
24173;SDS011;12324;48.146;11.502;2023-02-04T10:41:37;13.40;;;3.15;;
24173;SDS011;12324;48.146;11.502;2023-02-04T10:44:05;11.15;;;2.70;;
24173;SDS011;12324;48.146;11.502;2023-02-04T10:46:33;14.73;;;3.50;;
24173;SDS011;12324;48.146;11.502;2023-02-04T10:49:02;14.07;;;2.85;;
24173;SDS011;12324;48.146;11.502;2023-02-04T10:51:29;11.55;;;2.45;;
24173;SDS011;12324;48.146;11.502;2023-02-04T10:53:56;12.02;;;3.17;;
24173;SDS011;12324;48.146;11.502;2023-02-04T10:56:52;8.20;;;2.60;;
24173;SDS011;12324;48.146;11.502;2023-02-04T10:59:21;13.45;;;3.28;;
24173;SDS011;12324;48.146;11.502;2023-02-04T11:01:52;9.90;;;2.80;;
24173;SDS011;12324;48.146;11.502;2023-02-04T11:04:20;12.88;;;3.03;;
24173;SDS011;12324;48.146;11.502;2023-02-04T11:06:47;10.35;;;3.10;;
24173;SDS011;12324;48.146;11.502;2023-02-04T11:09:14;16.80;;;3.20;;
24173;SDS011;12324;48.146;11.502;2023-02-04T11:11:48;13.48;;;3.28;;
24173;SDS011;12324;48.146;11.502;2023-02-04T11:14:23;10.20;;;2.65;;
24173;SDS011;12324;48.146;11.502;2023-02-04T11:16:51;11.90;;;3.22;;
24173;SDS011;12324;48.146;11.502;2023-02-04T11:19:30;10.60;;;2.88;;
24173;SDS011;12324;48.146;11.502;2023-02-04T11:22:19;7.88;;;2.22;;
24173;SDS011;12324;48.146;11.502;2023-02-04T11:24:47;6.57;;;2.17;;
24173;SDS011;12324;48.146;11.502;2023-02-04T11:27:22;12.25;;;2.47;;
24173;SDS011;12324;48.146;11.502;2023-02-04T11:29:50;10.57;;;1.98;;
24173;SDS011;12324;48.146;11.502;2023-02-04T11:32:28;6.25;;;1.55;;
24173;SDS011;12324;48.146;11.502;2023-02-04T11:35:05;5.95;;;2.10;;
24173;SDS011;12324;48.146;11.502;2023-02-04T11:37:37;9.18;;;2.33;;
24173;SDS011;12324;48.146;11.502;2023-02-04T11:42:46;7.78;;;1.73;;
24173;SDS011;12324;48.146;11.502;2023-02-04T11:45:15;6.75;;;1.80;;
24173;SDS011;12324;48.146;11.502;2023-02-04T11:47:43;9.77;;;2.47;;
24173;SDS011;12324;48.146;11.502;2023-02-04T11:50:16;4.43;;;1.63;;
24173;SDS011;12324;48.146;11.502;2023-02-04T11:52:45;3.95;;;1.80;;
24173;SDS011;12324;48.146;11.502;2023-02-04T11:55:12;3.85;;;1.65;;
24173;SDS011;12324;48.146;11.502;2023-02-04T11:57:40;6.30;;;1.58;;
24173;SDS011;12324;48.146;11.502;2023-02-04T12:00:11;5.28;;;1.73;;
24173;SDS011;12324;48.146;11.502;2023-02-04T12:02:40;5.43;;;1.70;;
24173;SDS011;12324;48.146;11.502;2023-02-04T12:05:10;3.28;;;1.58;;
24173;SDS011;12324;48.146;11.502;2023-02-04T12:07:37;8.57;;;2.00;;
24173;SDS011;12324;48.146;11.502;2023-02-04T12:12:56;6.50;;;2.10;;
24173;SDS011;12324;48.146;11.502;2023-02-04T12:15:32;5.72;;;2.08;;
24173;SDS011;12324;48.146;11.502;2023-02-04T12:18:07;4.88;;;1.83;;
24173;SDS011;12324;48.146;11.502;2023-02-04T12:20:34;7.68;;;2.05;;
24173;SDS011;12324;48.146;11.502;2023-02-04T12:23:02;5.40;;;1.75;;
24173;SDS011;12324;48.146;11.502;2023-02-04T12:25:29;5.18;;;2.20;;
24173;SDS011;12324;48.146;11.502;2023-02-04T12:27:57;9.85;;;2.50;;
24173;SDS011;12324;48.146;11.502;2023-02-04T12:30:24;6.97;;;2.95;;
24173;SDS011;12324;48.146;11.502;2023-02-04T12:32:52;7.63;;;3.38;;
24173;SDS011;12324;48.146;11.502;2023-02-04T12:35:19;7.97;;;2.80;;
24173;SDS011;12324;48.146;11.502;2023-02-04T12:37:46;6.25;;;2.13;;
24173;SDS011;12324;48.146;11.502;2023-02-04T12:40:14;6.15;;;1.85;;
24173;SDS011;12324;48.146;11.502;2023-02-04T12:42:42;7.22;;;2.22;;
24173;SDS011;12324;48.146;11.502;2023-02-04T12:45:13;4.03;;;1.67;;
24173;SDS011;12324;48.146;11.502;2023-02-04T12:47:40;5.85;;;2.17;;
24173;SDS011;12324;48.146;11.502;2023-02-04T12:50:07;7.47;;;1.83;;
24173;SDS011;12324;48.146;11.502;2023-02-04T12:52:35;7.25;;;2.30;;
24173;SDS011;12324;48.146;11.502;2023-02-04T12:55:02;4.93;;;2.13;;
24173;SDS011;12324;48.146;11.502;2023-02-04T12:57:32;9.00;;;2.40;;
24173;SDS011;12324;48.146;11.502;2023-02-04T13:00:00;10.38;;;1.98;;
24173;SDS011;12324;48.146;11.502;2023-02-04T13:02:27;4.25;;;2.00;;
24173;SDS011;12324;48.146;11.502;2023-02-04T13:04:54;5.63;;;2.13;;
24173;SDS011;12324;48.146;11.502;2023-02-04T13:07:22;8.45;;;2.58;;
24173;SDS011;12324;48.146;11.502;2023-02-04T13:09:49;11.80;;;2.40;;
24173;SDS011;12324;48.146;11.502;2023-02-04T13:12:16;4.28;;;1.83;;
24173;SDS011;12324;48.146;11.502;2023-02-04T13:14:43;7.70;;;2.40;;
24173;SDS011;12324;48.146;11.502;2023-02-04T13:17:10;5.45;;;2.10;;
24173;SDS011;12324;48.146;11.502;2023-02-04T13:19:37;7.63;;;2.22;;
24173;SDS011;12324;48.146;11.502;2023-02-04T13:22:04;7.38;;;2.33;;
24173;SDS011;12324;48.146;11.502;2023-02-04T13:24:31;6.95;;;2.35;;
24173;SDS011;12324;48.146;11.502;2023-02-04T13:26:58;8.07;;;2.08;;
24173;SDS011;12324;48.146;11.502;2023-02-04T13:29:25;8.70;;;2.55;;
24173;SDS011;12324;48.146;11.502;2023-02-04T13:31:52;6.30;;;2.55;;
24173;SDS011;12324;48.146;11.502;2023-02-04T13:34:20;6.47;;;1.92;;
24173;SDS011;12324;48.146;11.502;2023-02-04T13:36:47;7.70;;;2.20;;
24173;SDS011;12324;48.146;11.502;2023-02-04T13:39:14;7.28;;;2.58;;
24173;SDS011;12324;48.146;11.502;2023-02-04T13:41:41;7.43;;;2.20;;
24173;SDS011;12324;48.146;11.502;2023-02-04T13:44:08;6.85;;;2.40;;
24173;SDS011;12324;48.146;11.502;2023-02-04T13:46:35;4.40;;;2.30;;
24173;SDS011;12324;48.146;11.502;2023-02-04T13:49:02;5.38;;;1.92;;
24173;SDS011;12324;48.146;11.502;2023-02-04T13:51:29;2.63;;;1.65;;
24173;SDS011;12324;48.146;11.502;2023-02-04T13:53:56;5.90;;;2.20;;
24173;SDS011;12324;48.146;11.502;2023-02-04T13:56:25;6.07;;;2.05;;
24173;SDS011;12324;48.146;11.502;2023-02-04T13:58:53;4.10;;;1.67;;
24173;SDS011;12324;48.146;11.502;2023-02-04T14:01:20;6.68;;;2.00;;
24173;SDS011;12324;48.146;11.502;2023-02-04T14:03:47;6.25;;;2.10;;
24173;SDS011;12324;48.146;11.502;2023-02-04T14:06:14;6.43;;;2.00;;
24173;SDS011;12324;48.146;11.502;2023-02-04T14:08:45;8.48;;;2.45;;
24173;SDS011;12324;48.146;11.502;2023-02-04T14:11:13;5.85;;;2.10;;
24173;SDS011;12324;48.146;11.502;2023-02-04T14:13:40;3.88;;;2.15;;
24173;SDS011;12324;48.146;11.502;2023-02-04T14:16:07;5.03;;;2.05;;
24173;SDS011;12324;48.146;11.502;2023-02-04T14:18:34;5.95;;;2.25;;
24173;SDS011;12324;48.146;11.502;2023-02-04T14:21:01;5.15;;;2.00;;
24173;SDS011;12324;48.146;11.502;2023-02-04T14:23:28;6.13;;;2.38;;
24173;SDS011;12324;48.146;11.502;2023-02-04T14:25:55;5.03;;;2.00;;
24173;SDS011;12324;48.146;11.502;2023-02-04T14:28:22;6.05;;;2.15;;
24173;SDS011;12324;48.146;11.502;2023-02-04T14:30:49;5.05;;;2.00;;
24173;SDS011;12324;48.146;11.502;2023-02-04T14:33:17;3.05;;;1.90;;
24173;SDS011;12324;48.146;11.502;2023-02-04T14:35:44;3.42;;;1.90;;
24173;SDS011;12324;48.146;11.502;2023-02-04T14:38:11;2.67;;;1.85;;